Time;durP1;ratioP1;P1;durP2;ratioP2;P2;SDS_P1;SDS_P2;PMS_P1;PMS_P2;Temp;Humidity;BMP_temperature;BMP_pressure;BME280_temperature;BME280_humidity;BME280_pressure;Samples;Min_cycle;Max_cycle;Signal;HPM_P1;HPM_P2
2022/07/26 00:00:03;;;;;;;17.67;15.95;;;;;;;28.11;43.95;98304.13;5147398;27;20299;-75
2022/07/26 00:02:30;;;;;;;15.52;14.13;;;;;;;28.13;44.00;98307.47;5147662;27;20066;-75
2022/07/26 00:04:57;;;;;;;15.50;13.88;;;;;;;28.10;43.83;98303.31;5147624;27;20104;-74
2022/07/26 00:07:25;;;;;;;18.50;16.67;;;;;;;28.15;43.59;98304.53;5147284;27;20184;-74
2022/07/26 00:09:52;;;;;;;21.45;19.45;;;;;;;28.15;44.14;98299.91;5147519;27;20108;-74
2022/07/26 00:12:21;;;;;;;18.40;16.50;;;;;;;28.17;44.00;98296.97;5147128;27;20054;-75
2022/07/26 00:14:49;;;;;;;22.77;20.65;;;;;;;28.15;44.21;98302.63;5147444;27;20061;-75
2022/07/26 00:17:16;;;;;;;15.75;13.95;;;;;;;28.16;43.98;98304.31;5147267;27;20051;-74
2022/07/26 00:19:44;;;;;;;12.98;11.77;;;;;;;28.07;44.46;98295.56;5147592;27;20083;-75
2022/07/26 00:22:38;;;;;;;11.27;10.00;;;;;;;27.97;44.18;98270.72;5147009;27;20315;-73
2022/07/26 00:25:08;;;;;;;10.27;9.32;;;;;;;27.99;44.82;98278.69;5146749;27;20055;-74
2022/07/26 00:27:38;;;;;;;10.68;9.40;;;;;;;27.56;44.41;98219.47;5147385;27;20031;-75
2022/07/26 00:30:08;;;;;;;10.85;9.75;;;;;;;27.74;44.80;98278.63;5146807;27;20050;-75
2022/07/26 00:32:35;;;;;;;16.00;10.32;;;;;;;26.97;44.65;98133.66;5147070;27;20051;-74
2022/07/26 00:35:03;;;;;;;10.00;9.02;;;;;;;27.74;44.73;98289.50;5146863;27;20051;-74
2022/07/26 00:37:31;;;;;;;10.60;8.75;;;;;;;27.88;44.69;98280.22;5146940;27;20051;-74
2022/07/26 00:39:58;;;;;;;9.88;9.05;;;;;;;27.99;44.59;98298.56;5146550;27;20046;-75
2022/07/26 00:42:26;;;;;;;14.50;13.05;;;;;;;27.90;44.48;98309.97;5146716;27;20050;-74
2022/07/26 00:44:55;;;;;;;25.30;22.75;;;;;;;27.82;44.57;98289.25;5146332;27;20107;-74
2022/07/26 00:47:22;;;;;;;20.77;18.67;;;;;;;27.88;44.74;98312.91;5146745;27;20054;-74
2022/07/26 00:49:49;;;;;;;21.77;19.52;;;;;;;27.19;45.09;98202.13;5146955;27;20307;-75
2022/07/26 00:52:17;;;;;;;15.75;14.20;;;;;;;27.80;44.75;98294.09;5146706;27;20051;-74
2022/07/26 00:54:45;;;;;;;13.27;12.07;;;;;;;27.94;44.71;98313.91;5146812;27;20047;-74
2022/07/26 00:57:13;;;;;;;13.75;11.80;;;;;;;27.90;44.90;98340.75;5146351;27;20112;-74
2022/07/26 00:59:41;;;;;;;10.15;9.25;;;;;;;27.60;44.92;98437.59;5146465;27;20096;-74
2022/07/26 01:02:10;;;;;;;10.32;8.00;;;;;;;27.54;44.12;98465.66;5146561;27;20055;-74
2022/07/26 01:04:37;;;;;;;11.25;7.53;;;;;;;27.45;44.30;98462.34;5146587;27;20112;-74
2022/07/26 01:07:06;;;;;;;10.85;8.02;;;;;;;27.02;44.48;98397.56;5145508;28;20047;-75
2022/07/26 01:09:33;;;;;;;9.45;7.35;;;;;;;27.12;44.84;98410.72;5146576;27;20108;-74
2022/07/26 01:12:01;;;;;;;13.02;8.13;;;;;;;27.19;45.02;98479.53;5146574;27;20254;-74
2022/07/26 01:14:28;;;;;;;21.35;9.02;;;;;;;26.95;44.84;98513.66;5146555;27;20096;-73
2022/07/26 01:16:56;;;;;;;24.60;8.32;;;;;;;26.83;45.36;98490.88;5146620;27;20065;-72
2022/07/26 01:19:24;;;;;;;20.00;7.32;;;;;;;26.72;45.04;98494.22;5146638;27;20286;-71
2022/07/26 01:21:53;;;;;;;16.25;7.25;;;;;;;26.64;46.18;98469.97;5146344;28;20062;-74
2022/07/26 01:24:20;;;;;;;11.55;6.50;;;;;;;26.35;47.62;98504.59;5146586;28;20107;-73
2022/07/26 01:26:47;;;;;;;9.52;5.05;;;;;;;26.10;49.88;98601.22;5146304;27;20054;-73
2022/07/26 01:29:14;;;;;;;6.18;4.53;;;;;;;25.68;51.11;98494.53;5146287;27;20077;-73
2022/07/26 01:31:42;;;;;;;5.90;4.90;;;;;;;25.54;52.11;98520.75;5146400;27;20084;-74
2022/07/26 01:34:09;;;;;;;6.05;5.07;;;;;;;25.10;53.63;98495.81;5146074;27;20379;-74
2022/07/26 01:36:36;;;;;;;10.00;5.22;;;;;;;24.95;54.77;98563.66;5146742;27;20051;-74
2022/07/26 01:39:05;;;;;;;6.57;5.03;;;;;;;24.44;55.69;98484.38;5146287;28;20260;-73
2022/07/26 01:41:34;;;;;;;7.63;5.60;;;;;;;24.55;56.22;98541.59;5145737;28;20055;-73
2022/07/26 01:44:01;;;;;;;11.65;5.47;;;;;;;24.41;56.85;98511.84;5146494;28;20047;-71
2022/07/26 01:46:28;;;;;;;5.90;4.75;;;;;;;24.15;56.35;98498.88;5146017;27;20055;-71
2022/07/26 01:48:55;;;;;;;6.63;4.80;;;;;;;24.26;56.50;98536.28;5146317;27;20080;-71
2022/07/26 01:51:23;;;;;;;6.55;5.55;;;;;;;23.52;56.08;98409.28;5146081;28;20111;-71
2022/07/26 01:53:50;;;;;;;8.05;4.50;;;;;;;24.10;57.42;98553.59;5146105;28;20099;-70
2022/07/26 01:56:18;;;;;;;13.27;5.30;;;;;;;24.00;57.34;98521.41;5148088;27;20055;-71
2022/07/26 01:58:45;;;;;;;7.45;4.93;;;;;;;23.99;57.44;98562.19;5150001;27;20059;-71
2022/07/26 02:01:13;;;;;;;9.85;5.25;;;;;;;23.82;57.63;98493.91;5149925;27;20055;-71
2022/07/26 02:03:40;;;;;;;12.43;5.10;;;;;;;23.86;58.09;98486.25;5150051;27;20319;-71
2022/07/26 02:06:07;;;;;;;7.22;4.78;;;;;;;23.71;58.31;98478.16;5149507;27;20059;-71
2022/07/26 02:08:35;;;;;;;5.13;4.07;;;;;;;23.83;58.66;98517.22;5149731;27;20059;-71
2022/07/26 02:11:03;;;;;;;6.15;4.22;;;;;;;23.75;58.70;98532.72;5149634;27;20108;-70
2022/07/26 02:13:34;;;;;;;7.90;4.22;;;;;;;23.37;59.22;98473.34;5150032;27;20092;-69
2022/07/26 02:16:02;;;;;;;5.50;4.32;;;;;;;23.40;58.34;98486.47;5149539;27;20210;-70
2022/07/26 02:18:30;;;;;;;5.45;4.35;;;;;;;23.47;59.63;98525.28;5149623;27;20081;-70
2022/07/26 02:20:58;;;;;;;5.43;4.55;;;;;;;23.37;59.75;98530.13;5149395;27;20055;-70
2022/07/26 02:23:28;;;;;;;4.38;3.85;;;;;;;23.47;59.24;98527.97;5149467;27;20264;-70
2022/07/26 02:25:55;;;;;;;6.15;4.55;;;;;;;23.31;61.04;98510.06;5149401;27;20051;-70
2022/07/26 02:28:23;;;;;;;7.20;4.43;;;;;;;22.96;61.41;98489.97;5148598;27;20088;-70
2022/07/26 02:30:52;;;;;;;5.82;4.20;;;;;;;23.07;60.83;98539.19;5149397;27;20252;-70
2022/07/26 02:33:19;;;;;;;4.57;4.05;;;;;;;23.09;61.06;98567.72;5148272;27;20058;-70
2022/07/26 02:35:47;;;;;;;5.13;4.05;;;;;;;23.10;60.82;98544.22;5148939;27;20055;-69
2022/07/26 02:38:16;;;;;;;5.65;4.50;;;;;;;23.00;62.34;98566.09;5149194;27;20059;-70
2022/07/26 02:40:43;;;;;;;7.30;4.22;;;;;;;22.92;62.62;98563.47;5148964;27;20196;-70
2022/07/26 02:43:11;;;;;;;5.40;4.20;;;;;;;22.80;62.12;98537.91;5148753;27;20115;-70
2022/07/26 02:45:39;;;;;;;6.70;5.07;;;;;;;22.34;63.54;98498.22;5149196;27;20058;-70
2022/07/26 02:48:11;;;;;;;4.90;4.07;;;;;;;22.68;64.02;98600.47;5148964;27;20360;-70
2022/07/26 02:50:41;;;;;;;5.07;4.45;;;;;;;22.47;64.28;98573.25;5149205;27;20045;-70
2022/07/26 02:53:08;;;;;;;6.28;4.35;;;;;;;22.63;63.39;98592.06;5148900;27;20107;-70
2022/07/26 02:55:35;;;;;;;5.90;3.35;;;;;;;22.61;63.32;98593.25;5148832;27;20163;-70
2022/07/26 02:58:02;;;;;;;5.28;3.75;;;;;;;22.60;64.65;98603.22;5148458;27;20050;-70
2022/07/26 03:00:30;;;;;;;6.03;3.88;;;;;;;22.48;64.41;98601.94;5149094;27;20043;-70
2022/07/26 03:02:57;;;;;;;3.80;3.08;;;;;;;22.57;64.96;98592.78;5148897;27;20054;-70
2022/07/26 03:05:26;;;;;;;4.93;3.92;;;;;;;22.12;64.67;98542.22;5148542;27;20058;-70
2022/07/26 03:07:53;;;;;;;6.10;3.72;;;;;;;22.38;64.73;98566.19;5147562;27;20268;-70
2022/07/26 03:10:20;;;;;;;5.45;3.75;;;;;;;22.41;65.26;98576.66;5148604;27;20104;-69
2022/07/26 03:12:47;;;;;;;4.63;3.50;;;;;;;22.48;66.08;98565.97;5148573;27;20119;-70
2022/07/26 03:15:18;;;;;;;4.95;3.65;;;;;;;22.35;66.61;98566.53;5148799;27;20062;-69
2022/07/26 03:17:45;;;;;;;4.80;3.38;;;;;;;22.45;65.85;98571.75;5148117;27;20051;-70
2022/07/26 03:20:13;;;;;;;3.97;3.00;;;;;;;22.37;65.68;98569.91;5148455;27;20059;-70
2022/07/26 03:22:41;;;;;;;4.03;3.22;;;;;;;22.36;66.51;98566.38;5148479;27;20055;-70
2022/07/26 03:25:09;;;;;;;5.85;3.15;;;;;;;22.34;65.61;98554.06;5148341;27;20315;-71
2022/07/26 03:27:36;;;;;;;5.65;3.63;;;;;;;22.40;66.25;98574.94;5148353;27;20237;-71
2022/07/26 03:30:04;;;;;;;4.57;3.50;;;;;;;22.21;65.76;98549.25;5147434;27;20303;-70
2022/07/26 03:32:31;;;;;;;4.07;3.50;;;;;;;22.48;64.15;98563.28;5147816;27;20123;-70
2022/07/26 03:34:58;;;;;;;6.68;3.25;;;;;;;22.36;65.04;98570.91;5148205;27;20260;-70
2022/07/26 03:37:25;;;;;;;5.47;3.80;;;;;;;22.34;65.44;98578.34;5148040;27;20244;-70
2022/07/26 03:39:55;;;;;;;6.78;3.80;;;;;;;22.41;65.60;98569.41;5147710;27;20326;-70
2022/07/26 03:42:22;;;;;;;4.35;3.33;;;;;;;22.40;65.54;98554.22;5148077;27;20051;-70
2022/07/26 03:44:49;;;;;;;4.13;3.08;;;;;;;22.44;65.93;98534.97;5147590;27;20063;-70
2022/07/26 03:47:16;;;;;;;5.60;4.05;;;;;;;22.44;66.14;98540.38;5147428;27;20062;-69
2022/07/26 03:49:43;;;;;;;6.55;3.53;;;;;;;22.54;64.95;98562.56;5147426;27;20055;-70
2022/07/26 03:52:11;;;;;;;4.63;3.70;;;;;;;22.75;64.81;98578.13;5147638;27;20051;-71
2022/07/26 03:54:38;;;;;;;5.65;4.38;;;;;;;22.64;64.79;98585.63;5146639;27;20055;-71
2022/07/26 03:57:05;;;;;;;5.18;3.88;;;;;;;22.57;65.50;98584.69;5147232;27;20059;-70
2022/07/26 03:59:33;;;;;;;5.72;5.10;;;;;;;22.49;65.64;98582.00;5147282;27;20112;-71
2022/07/26 04:02:00;;;;;;;5.13;4.40;;;;;;;22.52;66.25;98589.75;5147492;27;20063;-71
2022/07/26 04:04:27;;;;;;;5.40;4.32;;;;;;;22.45;65.46;98567.19;5147617;27;20124;-71
2022/07/26 04:06:56;;;;;;;4.78;4.18;;;;;;;22.32;64.94;98523.72;5147423;27;20083;-71
2022/07/26 04:09:24;;;;;;;4.53;4.07;;;;;;;22.69;65.55;98591.34;5147796;27;20055;-70
2022/07/26 04:11:51;;;;;;;5.00;4.10;;;;;;;22.59;65.54;98606.09;5146870;27;20051;-70
2022/07/26 04:14:20;;;;;;;4.57;4.00;;;;;;;22.59;64.84;98606.09;5146642;27;20039;-70
2022/07/26 04:16:47;;;;;;;5.00;4.03;;;;;;;22.59;64.63;98606.09;5147150;27;20051;-70
2022/07/26 04:19:15;;;;;;;4.43;3.60;;;;;;;21.77;65.08;98470.72;5146349;27;20055;-71
2022/07/26 04:21:42;;;;;;;4.43;3.70;;;;;;;22.48;65.43;98620.81;5147154;27;20256;-70
2022/07/26 04:24:09;;;;;;;5.00;3.90;;;;;;;22.42;65.74;98619.69;5147256;27;20103;-71
2022/07/26 04:26:37;;;;;;;15.32;4.25;;;;;;;22.32;65.84;98629.81;5147173;27;20311;-70
2022/07/26 04:29:04;;;;;;;5.80;3.53;;;;;;;22.42;65.16;98630.47;5146876;27;20347;-71
2022/07/26 04:31:32;;;;;;;4.60;3.53;;;;;;;22.35;65.60;98639.44;5147028;27;20058;-70
2022/07/26 04:33:59;;;;;;;4.53;3.85;;;;;;;22.20;66.03;98647.44;5146932;27;20257;-71
2022/07/26 04:36:27;;;;;;;4.00;3.47;;;;;;;22.26;65.33;98644.03;5146874;27;20112;-71
2022/07/26 04:38:54;;;;;;;3.90;3.17;;;;;;;21.59;65.15;98537.56;5147086;27;20103;-70
2022/07/26 04:41:21;;;;;;;3.55;3.13;;;;;;;22.24;65.34;98647.91;5146507;27;20051;-70
2022/07/26 04:43:48;;;;;;;4.63;3.63;;;;;;;22.17;65.62;98666.66;5146537;27;20063;-70
2022/07/26 04:46:17;;;;;;;6.00;3.33;;;;;;;22.15;65.60;98643.56;5146701;27;20055;-70
2022/07/26 04:48:45;;;;;;;4.05;3.20;;;;;;;22.04;66.14;98667.22;5146610;27;20096;-70
2022/07/26 04:51:12;;;;;;;4.50;3.13;;;;;;;22.07;65.17;98660.63;5146625;27;20058;-70
2022/07/26 04:53:39;;;;;;;3.67;3.20;;;;;;;22.11;65.04;98683.56;5146364;27;20059;-70
2022/07/26 04:56:07;;;;;;;4.20;3.50;;;;;;;21.97;66.00;98666.22;5146376;27;20108;-70
2022/07/26 04:58:34;;;;;;;4.05;3.60;;;;;;;21.90;65.81;98667.94;5146487;27;20046;-70
2022/07/26 05:01:02;;;;;;;4.30;3.42;;;;;;;21.99;65.21;98657.97;5146441;27;20055;-70
2022/07/26 05:03:29;;;;;;;3.90;3.13;;;;;;;22.03;65.01;98678.19;5146675;27;20055;-70
2022/07/26 05:05:57;;;;;;;5.32;3.70;;;;;;;21.92;64.98;98682.09;5146484;28;20092;-69
2022/07/26 05:08:24;;;;;;;4.15;3.38;;;;;;;21.92;65.46;98683.97;5146329;28;20055;-70
2022/07/26 05:10:52;;;;;;;5.65;3.40;;;;;;;21.87;66.06;98683.63;5146413;28;20059;-70
2022/07/26 05:13:19;;;;;;;4.45;3.58;;;;;;;21.85;65.60;98674.88;5146470;27;20363;-70
2022/07/26 05:15:46;;;;;;;5.10;3.45;;;;;;;21.91;65.39;98674.19;5146441;28;20256;-69
2022/07/26 05:18:13;;;;;;;5.10;3.78;;;;;;;21.95;65.28;98675.53;5146387;27;20059;-69
2022/07/26 05:20:40;;;;;;;5.30;3.42;;;;;;;21.86;65.82;98704.38;5146556;27;20055;-69
2022/07/26 05:23:10;;;;;;;4.43;3.95;;;;;;;21.90;65.32;98692.22;5146279;27;20059;-69
2022/07/26 05:25:38;;;;;;;4.43;3.72;;;;;;;21.98;65.17;98692.19;5145421;28;20307;-69
2022/07/26 05:28:05;;;;;;;4.88;3.40;;;;;;;22.02;65.45;98692.69;5145904;27;20118;-70
2022/07/26 05:30:32;;;;;;;3.80;3.10;;;;;;;22.02;64.87;98692.69;5147420;27;20055;-70
2022/07/26 05:32:59;;;;;;;5.28;3.40;;;;;;;21.97;65.33;98703.16;5150637;27;20315;-69
2022/07/26 05:35:27;;;;;;;6.38;5.00;;;;;;;22.00;65.02;98706.34;5150337;27;20051;-70
2022/07/26 05:37:54;;;;;;;4.25;3.60;;;;;;;21.99;64.98;98717.31;5150256;27;20112;-69
2022/07/26 05:40:22;;;;;;;6.15;4.43;;;;;;;22.05;65.09;98730.13;5149955;27;20051;-70
2022/07/26 05:42:50;;;;;;;4.88;4.07;;;;;;;22.03;64.50;98735.69;5149874;27;20058;-70
2022/07/26 05:45:21;;;;;;;6.68;3.88;;;;;;;21.91;65.20;98737.06;5150002;27;20055;-72
2022/07/26 05:47:52;;;;;;;5.47;3.40;;;;;;;20.93;65.02;98579.09;5150205;27;20047;-72
2022/07/26 05:50:20;;;;;;;4.90;3.35;;;;;;;21.91;65.43;98742.47;5149222;27;20211;-70
2022/07/26 05:52:48;;;;;;;6.97;4.32;;;;;;;21.91;65.46;98757.81;5150196;27;20065;-70
2022/07/26 05:55:15;;;;;;;5.28;3.45;;;;;;;21.89;65.03;98771.47;5148878;27;20261;-70
2022/07/26 05:57:46;;;;;;;4.82;4.03;;;;;;;21.83;65.48;98764.06;5149691;27;20055;-70
2022/07/26 06:00:14;;;;;;;5.68;4.10;;;;;;;21.80;65.58;98780.56;5150166;27;20050;-70
2022/07/26 06:02:41;;;;;;;4.68;3.47;;;;;;;21.76;65.92;98761.16;5149787;27;20104;-70
2022/07/26 06:05:09;;;;;;;5.95;3.70;;;;;;;21.83;65.76;98766.75;5149319;27;20249;-70
2022/07/26 06:07:36;;;;;;;5.95;3.67;;;;;;;21.83;65.94;98769.44;5149574;27;20060;-70
2022/07/26 06:10:04;;;;;;;8.10;4.15;;;;;;;21.76;65.89;98766.56;5149393;27;20047;-70
2022/07/26 06:12:32;;;;;;;8.13;4.35;;;;;;;21.83;65.12;98771.31;5149733;27;20100;-70
2022/07/26 06:15:00;;;;;;;5.22;3.78;;;;;;;21.34;65.67;98698.50;5149688;27;20115;-70
2022/07/26 06:17:28;;;;;;;4.30;3.30;;;;;;;21.75;66.21;98770.25;5149402;27;20051;-70
2022/07/26 06:19:56;;;;;;;4.88;3.90;;;;;;;21.73;66.18;98771.44;5149632;27;20364;-70
2022/07/26 06:22:23;;;;;;;4.75;3.20;;;;;;;21.77;66.41;98779.03;5149580;27;20311;-70
2022/07/26 06:24:50;;;;;;;4.55;3.70;;;;;;;21.83;65.86;98769.44;5149538;27;20237;-70
2022/07/26 06:27:17;;;;;;;6.50;3.88;;;;;;;21.85;65.49;98762.03;5149315;27;20315;-70
2022/07/26 06:29:47;;;;;;;9.77;4.35;;;;;;;21.93;65.50;98771.97;5149163;27;20348;-70
2022/07/26 06:32:15;;;;;;;7.00;4.22;;;;;;;21.89;66.30;98767.94;5149322;27;20070;-70
2022/07/26 06:34:42;;;;;;;12.07;5.35;;;;;;;21.86;66.22;98774.50;5149380;27;20314;-70
2022/07/26 06:37:10;;;;;;;5.00;3.65;;;;;;;21.87;65.57;98769.94;5149052;27;20307;-70
2022/07/26 06:39:37;;;;;;;7.60;4.03;;;;;;;21.84;66.03;98771.13;5148515;27;20103;-70
2022/07/26 06:42:04;;;;;;;5.18;3.30;;;;;;;21.90;65.40;98783.09;5147983;27;20051;-70
2022/07/26 06:44:31;;;;;;;26.83;10.68;;;;;;;21.95;65.55;98784.28;5148870;27;20373;-69
2022/07/26 06:46:59;;;;;;;7.18;3.90;;;;;;;22.01;64.97;98775.50;5149055;27;20077;-70
2022/07/26 06:49:27;;;;;;;4.95;3.45;;;;;;;21.77;65.86;98762.84;5148878;27;20066;-70
2022/07/26 06:51:56;;;;;;;16.15;5.85;;;;;;;21.74;67.06;98782.06;5148456;27;20055;-70
2022/07/26 06:54:23;;;;;;;7.28;3.83;;;;;;;21.82;66.04;98799.28;5148889;27;20055;-70
2022/07/26 06:56:50;;;;;;;7.55;4.00;;;;;;;21.79;66.65;98786.94;5148972;27;20051;-69
2022/07/26 06:59:17;;;;;;;4.85;3.30;;;;;;;21.06;65.58;98660.28;5148240;27;20051;-70
2022/07/26 07:01:45;;;;;;;6.28;4.15;;;;;;;21.81;65.77;98793.06;5148188;27;20054;-70
2022/07/26 07:04:12;;;;;;;5.65;3.55;;;;;;;21.70;65.11;98761.84;5148402;27;20100;-70
2022/07/26 07:06:41;;;;;;;6.75;4.05;;;;;;;21.72;65.64;98751.72;5148593;27;20071;-70
2022/07/26 07:09:08;;;;;;;7.70;3.72;;;;;;;21.86;65.17;98777.19;5148290;27;20051;-70
2022/07/26 07:11:35;;;;;;;4.95;3.50;;;;;;;21.96;65.01;98779.72;5148266;27;20368;-70
2022/07/26 07:14:02;;;;;;;11.10;4.93;;;;;;;21.23;64.95;98655.72;5148057;27;20055;-70
2022/07/26 07:16:30;;;;;;;4.30;2.92;;;;;;;21.92;65.05;98781.06;5148261;27;20303;-69
2022/07/26 07:18:57;;;;;;;5.57;3.50;;;;;;;21.86;64.86;98779.06;5147888;27;20192;-70
2022/07/26 07:21:24;;;;;;;4.82;3.30;;;;;;;21.89;64.38;98776.03;5147950;27;20047;-70
2022/07/26 07:23:53;;;;;;;5.93;3.05;;;;;;;21.13;64.54;98655.91;5148171;27;20058;-70
2022/07/26 07:26:20;;;;;;;6.13;3.30;;;;;;;21.73;64.44;98745.31;5148123;27;20062;-69
2022/07/26 07:28:47;;;;;;;5.55;3.40;;;;;;;21.93;64.38;98780.06;5148078;27;20112;-70
2022/07/26 07:31:14;;;;;;;24.10;5.97;;;;;;;21.77;64.37;98778.19;5147900;27;20059;-70
2022/07/26 07:33:41;;;;;;;4.78;3.70;;;;;;;21.82;64.26;98780.41;5148095;27;20108;-70
2022/07/26 07:36:09;;;;;;;4.72;3.08;;;;;;;21.90;64.40;98785.78;5147662;27;20063;-70
2022/07/26 07:38:36;;;;;;;4.57;3.00;;;;;;;21.77;64.74;98770.09;5147759;27;20062;-70
2022/07/26 07:41:05;;;;;;;5.43;2.92;;;;;;;21.87;64.67;98773.50;5147109;27;20062;-71
2022/07/26 07:43:32;;;;;;;12.07;3.75;;;;;;;21.86;64.71;98779.91;5147651;27;20093;-70
2022/07/26 07:45:59;;;;;;;7.28;3.88;;;;;;;21.63;65.28;98758.13;5147680;27;20055;-70
2022/07/26 07:48:26;;;;;;;7.03;4.57;;;;;;;21.69;65.50;98760.16;5146850;27;20380;-69
2022/07/26 07:50:54;;;;;;;33.42;9.43;;;;;;;21.78;65.48;98766.38;5147164;27;20051;-70
2022/07/26 07:53:21;;;;;;;9.10;3.97;;;;;;;21.82;65.36;98775.84;5147299;27;20375;-70
2022/07/26 07:55:48;;;;;;;4.43;2.85;;;;;;;21.76;65.18;98760.31;5147396;27;20055;-69
2022/07/26 07:58:17;;;;;;;5.68;4.00;;;;;;;21.67;65.32;98728.97;5147057;27;20051;-69
2022/07/26 08:00:45;;;;;;;5.28;3.13;;;;;;;21.91;65.04;98779.38;5147432;27;20315;-70
2022/07/26 08:03:12;;;;;;;3.80;3.33;;;;;;;21.84;65.39;98773.84;5147596;27;20066;-70
2022/07/26 08:05:39;;;;;;;4.53;3.40;;;;;;;21.86;65.66;98776.34;5146974;27;20108;-69
2022/07/26 08:08:06;;;;;;;4.55;2.97;;;;;;;21.83;65.26;98749.72;5147570;27;20043;-70
2022/07/26 08:10:33;;;;;;;5.93;3.60;;;;;;;21.97;65.42;98767.91;5147013;27;20315;-69
2022/07/26 08:13:01;;;;;;;4.78;3.08;;;;;;;22.02;64.95;98779.88;5147200;27;20055;-70
2022/07/26 08:15:29;;;;;;;4.70;3.80;;;;;;;21.83;64.85;98737.09;5147146;27;20307;-70
2022/07/26 08:17:57;;;;;;;4.30;3.20;;;;;;;21.93;65.08;98772.81;5146766;27;20051;-70
2022/07/26 08:20:24;;;;;;;4.80;3.53;;;;;;;21.92;65.11;98772.97;5146866;27;20062;-70
2022/07/26 08:22:51;;;;;;;3.97;3.08;;;;;;;21.91;65.22;98780.22;5147015;27;20111;-70
2022/07/26 08:25:19;;;;;;;4.47;3.65;;;;;;;21.96;65.03;98790.50;5147107;27;20246;-70
2022/07/26 08:27:46;;;;;;;5.38;3.30;;;;;;;22.02;65.12;98795.22;5146760;27;20104;-70
2022/07/26 08:30:13;;;;;;;4.25;3.28;;;;;;;22.02;64.86;98797.91;5146754;27;20119;-69
2022/07/26 08:32:42;;;;;;;4.68;3.20;;;;;;;22.00;64.99;98808.03;5146436;27;20055;-70
2022/07/26 08:35:10;;;;;;;4.43;3.15;;;;;;;22.06;64.72;98802.81;5145540;27;20088;-70
2022/07/26 08:37:38;;;;;;;3.78;3.35;;;;;;;21.96;64.41;98769.78;5146880;27;20174;-70
2022/07/26 08:40:07;;;;;;;4.22;3.20;;;;;;;22.15;64.74;98797.41;5146548;27;20265;-70
2022/07/26 08:42:34;;;;;;;4.72;3.50;;;;;;;22.17;64.65;98800.75;5145994;27;20063;-70
2022/07/26 08:45:01;;;;;;;4.95;3.42;;;;;;;22.14;64.51;98791.16;5146923;27;20110;-70
2022/07/26 08:47:29;;;;;;;4.88;3.15;;;;;;;22.01;64.81;98770.09;5145596;27;20050;-70
2022/07/26 08:49:57;;;;;;;4.07;3.47;;;;;;;22.26;64.55;98805.13;5146217;27;20100;-70
2022/07/26 08:52:24;;;;;;;4.93;3.60;;;;;;;22.23;64.33;98810.88;5146453;27;20311;-70
2022/07/26 08:54:52;;;;;;;3.40;2.75;;;;;;;21.87;64.62;98751.06;5146740;27;20059;-70
2022/07/26 08:57:20;;;;;;;5.10;3.22;;;;;;;22.19;65.09;98813.06;5146607;27;20092;-70
2022/07/26 09:00:19;;;;;;;4.53;3.78;;;;;;;22.18;65.05;98818.63;5146471;27;20071;-70
2022/07/26 09:02:47;;;;;;;3.85;3.20;;;;;;;22.19;64.95;98823.03;5146500;27;20051;-70
2022/07/26 09:05:15;;;;;;;5.82;3.08;;;;;;;21.60;64.43;98738.75;5145948;27;20039;-70
2022/07/26 09:07:44;;;;;;;4.30;3.33;;;;;;;22.08;65.03;98829.63;5146914;27;20047;-70
2022/07/26 09:10:13;;;;;;;5.03;3.55;;;;;;;22.12;64.60;98828.25;5146227;27;20149;-70
2022/07/26 09:12:41;;;;;;;4.85;3.05;;;;;;;21.14;64.20;98665.66;5146087;27;20061;-70
2022/07/26 09:15:20;;;;;;;7.22;3.38;;;;;;;22.18;64.87;98832.97;5146166;27;20104;-70
2022/07/26 09:17:50;;;;;;;4.88;3.63;;;;;;;22.18;64.73;98827.56;5146082;27;20058;-70
2022/07/26 09:20:20;;;;;;;3.90;3.00;;;;;;;22.24;64.66;98835.00;5146146;27;20113;-70
2022/07/26 09:23:05;;;;;;;5.10;3.72;;;;;;;22.33;64.61;98833.13;5146416;27;20062;-70
2022/07/26 09:25:34;;;;;;;4.53;3.58;;;;;;;22.35;64.68;98825.69;5146552;27;20175;-69
2022/07/26 09:28:02;;;;;;;5.07;4.00;;;;;;;22.41;64.25;98846.63;5145912;27;20055;-70
2022/07/26 09:30:32;;;;;;;4.53;3.33;;;;;;;22.47;64.12;98834.28;5146256;28;20314;-70
2022/07/26 09:33:02;;;;;;;4.80;3.88;;;;;;;22.48;64.10;98846.78;5146366;27;20055;-70
2022/07/26 09:35:31;;;;;;;4.13;3.28;;;;;;;22.48;63.90;98839.53;5146311;27;20184;-70
2022/07/26 09:37:59;;;;;;;4.15;3.50;;;;;;;22.56;63.83;98834.13;5146262;28;20080;-70
2022/07/26 09:40:33;;;;;;;4.65;3.50;;;;;;;22.50;64.00;98836.66;5144855;28;20043;-70
2022/07/26 09:43:02;;;;;;;4.25;3.08;;;;;;;22.54;64.00;98830.75;5146303;27;20047;-70
2022/07/26 09:45:33;;;;;;;6.80;3.28;;;;;;;22.61;64.10;98839.84;5146163;27;20127;-70
2022/07/26 09:48:01;;;;;;;5.22;3.63;;;;;;;22.32;64.21;98782.84;5145720;28;20108;-70
2022/07/26 09:50:30;;;;;;;4.78;3.78;;;;;;;22.70;63.54;98830.72;5145942;28;20039;-71
2022/07/26 09:53:09;;;;;;;5.95;3.50;;;;;;;22.73;63.66;98827.66;5144871;28;20333;-70
2022/07/26 09:55:53;;;;;;;5.78;3.67;;;;;;;22.74;63.67;98836.59;5145882;27;20115;-70
2022/07/26 09:58:22;;;;;;;4.65;3.25;;;;;;;22.34;63.45;98781.66;5146155;27;20131;-70
2022/07/26 10:00:50;;;;;;;5.40;3.45;;;;;;;22.82;63.61;98835.72;5145815;27;20055;-69
2022/07/26 10:03:18;;;;;;;6.18;3.78;;;;;;;22.87;63.58;98838.75;5145808;27;20051;-70
2022/07/26 10:05:46;;;;;;;6.82;3.90;;;;;;;22.83;63.38;98834.72;5145866;27;20241;-70
2022/07/26 10:08:14;;;;;;;6.40;3.70;;;;;;;22.87;63.25;98828.78;5144979;28;20144;-70
2022/07/26 10:10:47;;;;;;;5.57;4.05;;;;;;;22.95;64.07;98833.31;5145603;27;20196;-71
2022/07/26 10:13:16;;;;;;;5.13;4.03;;;;;;;22.95;63.54;98834.16;5146531;27;20055;-70
2022/07/26 10:15:44;;;;;;;6.65;3.90;;;;;;;23.01;63.24;98827.19;5145870;27;20115;-70
2022/07/26 10:18:44;;;;;;;7.82;3.10;;;;;;;23.03;63.27;98827.88;5147871;27;20039;-70
2022/07/26 10:21:22;;;;;;;5.40;3.90;;;;;;;22.90;63.21;98819.50;5149229;27;20059;-70
2022/07/26 10:23:50;;;;;;;4.85;3.92;;;;;;;23.06;63.31;98843.72;5149347;27;20176;-70
2022/07/26 10:26:44;;;;;;;6.07;4.70;;;;;;;22.22;63.51;98698.53;5149226;27;20349;-70
2022/07/26 10:29:25;;;;;;;5.40;4.30;;;;;;;23.07;63.48;98833.75;5124450;27;20054;-71
2022/07/26 10:32:13;;;;;;;4.43;4.03;;;;;;;22.25;63.19;98709.81;5147781;27;20039;-70
2022/07/26 10:34:43;;;;;;;6.80;4.10;;;;;;;23.02;63.48;98812.66;5148034;27;20185;-71
2022/07/26 10:37:22;;;;;;;4.40;3.47;;;;;;;22.94;63.33;98802.75;5149154;27;20041;-71
2022/07/26 10:40:19;;;;;;;5.47;4.00;;;;;;;23.24;63.20;98843.47;5148415;27;20116;-71
2022/07/26 10:42:47;;;;;;;6.75;3.70;;;;;;;23.24;63.11;98841.59;5148873;27;20217;-71
2022/07/26 10:45:19;;;;;;;5.82;3.95;;;;;;;22.87;63.08;98763.94;5148692;27;20107;-71
2022/07/26 10:48:12;;;;;;;8.27;4.18;;;;;;;23.26;63.46;98844.13;5148920;27;20039;-71
2022/07/26 10:50:40;;;;;;;5.43;3.85;;;;;;;23.29;63.27;98847.34;5148811;27;20058;-71
2022/07/26 10:53:09;;;;;;;6.07;4.38;;;;;;;23.34;63.54;98842.25;5148393;27;20055;-71
2022/07/26 10:55:48;;;;;;;4.43;3.78;;;;;;;23.17;63.33;98801.94;5148757;27;20100;-71
2022/07/26 10:58:15;;;;;;;6.38;4.93;;;;;;;23.41;63.35;98841.53;5148796;27;20241;-70
2022/07/26 11:00:59;;;;;;;8.10;4.03;;;;;;;23.48;63.51;98835.22;5148657;27;20081;-70
2022/07/26 11:03:36;;;;;;;5.20;4.35;;;;;;;23.55;63.12;98836.19;5148339;27;20051;-71
2022/07/26 11:06:10;;;;;;;4.80;4.10;;;;;;;23.67;62.98;98831.22;5148639;27;20080;-70
2022/07/26 11:08:37;;;;;;;4.97;4.07;;;;;;;23.75;62.51;98831.16;5148211;27;20115;-71
2022/07/26 11:11:06;;;;;;;8.25;4.85;;;;;;;23.88;62.91;98827.84;5148159;27;20097;-69
2022/07/26 11:13:35;;;;;;;6.13;5.03;;;;;;;23.98;62.23;98826.59;5148510;27;20055;-69
2022/07/26 11:16:05;;;;;;;4.70;4.20;;;;;;;24.12;61.81;98821.38;5148037;27;20200;-69
2022/07/26 11:18:34;;;;;;;5.25;4.07;;;;;;;24.16;61.48;98811.88;5148050;27;20356;-70
2022/07/26 11:21:10;;;;;;;5.35;4.80;;;;;;;24.14;60.89;98787.69;5148205;27;20356;-69
2022/07/26 11:23:39;;;;;;;5.80;5.10;;;;;;;24.25;60.96;98811.59;5147561;27;20050;-69
2022/07/26 11:26:13;;;;;;;6.53;5.00;;;;;;;24.37;60.77;98816.56;5147853;27;20161;-71
2022/07/26 11:28:46;;;;;;;8.05;4.50;;;;;;;24.35;60.33;98794.25;5147615;27;20107;-70
2022/07/26 11:31:16;;;;;;;7.10;5.15;;;;;;;24.42;60.40;98793.31;5147244;27;20055;-71
2022/07/26 11:33:47;;;;;;;6.32;5.38;;;;;;;24.63;60.04;98787.97;5147655;27;20051;-71
2022/07/26 11:36:15;;;;;;;5.15;4.60;;;;;;;24.70;59.72;98793.53;5147392;27;20055;-73
2022/07/26 11:38:51;;;;;;;7.57;4.60;;;;;;;24.72;58.73;98796.03;5147568;27;20055;-72